Latest Weather Observations for Broken Hill Airport

IDN60801

Issued at 5:02 pm EST Friday 28 August 2015 (issued every 30 minutes, with the page automatically refreshed every 10 minutes)

About weather observations | Map of weather stations | Latest weather observations for NSW | Other Formats
Station Details ID: 047048 Name: BROKEN HILL AIRPORT AWS Lat: -32.00 Lon: 141.47 Height: 281.3 m
Data from the previous 72 hours. | See also: Recent months at Broken Hill Airport
Date/Time
EST
Temp
°C
App
Temp
°C
Dew
Point
Rel
Hum
%
Delta-T
°C
Wind Press
QNH
hPa
Press
MSL
hPa
Rain
since 9 am
mm
Dir
 
Spd
km/h
Gust
km/h
Spd
kts
Gust
kts
28/05:00pm 11.4 7.2 5.9 69 2.6 S 17 22 9 12 1025.1 1025.2 0.0
28/04:30pm 11.4 6.8 5.7 68 2.7 S 19 22 10 12 1025.1 1025.2 0.0
28/04:00pm 11.9 7.4 6.0 67 2.8 S 19 24 10 13 1025.1 1025.2 0.0
28/03:30pm 12.1 8.0 6.4 68 2.7 S 17 20 9 11 1025.2 1025.3 0.0
28/03:00pm 12.1 8.0 6.4 68 2.7 S 17 20 9 11 1025.3 1025.4 0.0
28/02:30pm 11.8 8.4 6.1 68 2.7 S 13 19 7 10 1025.4 1025.5 0.0
28/02:00pm 11.4 8.0 5.9 69 2.6 S 13 24 7 13 1025.5 1025.6 0.0
28/01:30pm 11.5 7.8 6.4 71 2.4 S 15 24 8 13 1026.0 1026.1 0.0
28/01:29pm 11.4 7.4 6.5 72 2.3 S 17 24 9 13 1026.0 1026.1 0.0
28/01:00pm 11.0 7.2 7.5 79 1.7 S 17 22 9 12 1026.5 1026.7 0.0
28/12:30pm 10.4 7.5 6.5 77 1.8 S 11 17 6 9 1027.1 1027.2 0.0
28/12:00pm 9.5 6.0 7.1 85 1.1 S 15 19 8 10 1027.6 1027.7 0.0
28/11:30am 8.6 5.3 6.6 87 0.9 S 13 17 7 9 1028.0 1028.1 0.0
28/11:00am 8.0 4.6 6.0 87 0.9 S 13 19 7 10 1028.0 1028.1 0.0
28/10:30am 7.5 4.2 6.3 92 0.6 SW 13 17 7 9 1028.2 1028.3 0.0
28/10:00am 7.4 3.7 6.2 92 0.5 SSW 15 20 8 11 1028.2 1028.3 0.0
28/09:30am 7.1 3.7 5.7 91 0.6 S 13 20 7 11 1028.1 1028.2 0.0
28/09:00am 7.6 3.1 6.2 91 0.6 SSW 19 22 10 12 1027.9 1028.0 0.0
28/08:30am 7.6 3.5 6.4 92 0.6 SSW 17 22 9 12 1027.7 1027.8 0.0
28/08:00am 7.2 2.7 6.3 94 0.4 SSW 19 26 10 14 1027.3 1027.4 0.0
28/07:34am 6.9 2.2 6.2 95 0.3 S 20 26 11 14 1027.0 1027.1 0.0
28/07:30am 6.9 2.2 6.2 95 0.3 S 20 26 11 14 1026.9 1027.0 0.0
28/07:00am 6.7 2.6 6.0 95 0.3 SSW 17 22 9 12 1026.8 1026.9 0.0
28/06:30am 6.9 2.4 6.0 94 0.4 SSW 19 24 10 13 1026.5 1026.7 0.0
28/06:04am 6.9 2.4 6.0 94 0.4 SSW 19 22 10 12 1026.3 1026.5 0.0
28/06:00am 6.9 2.4 6.0 94 0.4 SSW 19 24 10 13 1026.3 1026.5 0.0
28/05:30am 6.5 3.0 5.5 93 0.5 SW 13 17 7 9 1026.1 1026.2 0.0
28/05:00am 5.7 2.0 4.7 93 0.4 SW 13 15 7 8 1025.8 1025.9 0.0
28/04:30am 4.3 1.1 3.1 92 0.5 SW 9 13 5 7 1025.6 1025.7 0.0
28/04:14am 3.8 0.9 2.5 91 0.5 WSW 7 9 4 5 1025.6 1025.7 0.0
28/04:00am 4.3 1.1 3.1 92 0.5 WSW 9 9 5 5 1025.6 1025.7 0.0
28/03:30am 4.0 1.1 2.4 89 0.6 WSW 7 9 4 5 1025.7 1025.8 0.0
28/03:00am 4.6 1.8 2.9 89 0.7 SW 7 9 4 5 1025.8 1025.9 0.0
28/02:30am 4.8 1.9 2.8 87 0.8 SW 7 9 4 5 1025.8 1025.9 0.0
28/02:00am 5.0 1.8 2.9 86 0.9 SW 9 9 5 5 1026.0 1026.1 0.0
28/01:30am 5.5 2.6 2.8 83 1.1 SW 7 9 4 5 1026.1 1026.2 0.0
28/01:00am 5.5 2.2 2.5 81 1.2 SW 9 11 5 6 1025.9 1026.0 0.0
28/12:30am 6.8 5.2 2.5 74 1.8 CALM 0 0 0 0 1025.8 1025.9 0.0
28/12:00am 7.1 5.5 2.4 72 2.0 CALM 0 0 0 0 1025.8 1025.9 0.0
 
Date/Time
EST
Temp
°C
App
Temp
°C
Dew
Point
Rel
Hum
%
Delta-T
°C
Wind Press
QNH
hPa
Press
MSL
hPa
Rain
since 9 am
mm
Dir
 
Spd
km/h
Gust
km/h
Spd
kts
Gust
kts
27/11:30pm 7.2 5.6 2.5 72 2.0 CALM 0 0 0 0 1025.8 1025.9 0.0
27/11:00pm 7.5 4.8 2.4 70 2.1 WSW 6 7 3 4 1025.9 1026.0 0.0
27/10:30pm 7.8 5.0 2.1 67 2.4 WSW 6 7 3 4 1025.9 1026.0 0.0
27/10:00pm 8.0 6.4 2.5 68 2.3 CALM 0 0 0 0 1025.9 1026.0 0.0
27/09:30pm 7.2 5.5 1.7 68 2.3 CALM 0 0 0 0 1026.0 1026.1 0.0
27/09:00pm 8.0 6.4 2.3 67 2.4 CALM 0 0 0 0 1025.8 1025.9 0.0
27/08:30pm 8.0 5.9 2.0 66 2.5 WSW 2 6 1 3 1025.7 1025.8 0.0
27/08:00pm 8.6 5.2 2.0 63 2.8 WSW 9 11 5 6 1025.4 1025.5 0.0
27/07:30pm 8.2 4.5 2.2 66 2.5 WSW 11 13 6 7 1025.0 1025.1 0.0
27/07:00pm 9.6 5.9 2.5 61 3.0 SW 11 13 6 7 1024.7 1024.8 0.0
27/06:30pm 11.3 7.2 2.1 53 4.0 SW 13 19 7 10 1024.4 1024.5 0.0
27/06:00pm 12.7 7.8 2.0 48 4.7 SW 17 24 9 13 1024.0 1024.1 0.0
27/05:30pm 13.8 9.6 1.8 44 5.3 SW 13 19 7 10 1023.6 1023.7 0.0
27/05:00pm 13.5 7.8 0.5 41 5.5 WSW 20 26 11 14 1023.4 1023.5 0.0
27/04:30pm 13.4 7.8 1.4 44 5.2 SW 20 30 11 16 1023.3 1023.4 0.0
27/04:00pm 13.4 8.1 2.9 49 4.7 SW 20 24 11 13 1023.3 1023.4 0.0
27/03:30pm 14.0 8.4 1.3 42 5.5 SW 20 32 11 17 1023.2 1023.3 0.0
27/03:00pm 14.3 8.9 2.2 44 5.4 SW 20 28 11 15 1023.3 1023.4 0.0
27/02:30pm 14.7 9.4 2.9 45 5.4 SW 20 30 11 16 1023.2 1023.3 0.0
27/02:00pm 14.4 8.9 2.0 43 5.5 SW 20 32 11 17 1023.3 1023.4 0.0
27/01:30pm 13.6 8.3 2.8 48 4.9 SSW 20 32 11 17 1023.7 1023.8 0.0
27/01:00pm 13.7 8.5 3.5 50 4.6 SSW 20 28 11 15 1023.9 1024.0 0.0
27/12:30pm 13.3 8.8 5.9 61 3.5 SSW 19 28 10 15 1024.1 1024.2 0.0
27/12:00pm 13.2 8.9 6.8 65 3.1 SSW 19 28 10 15 1024.3 1024.4 0.0
27/11:30am 13.0 8.4 6.6 65 3.1 SSW 20 26 11 14 1024.6 1024.7 0.0
27/11:00am 12.6 8.0 6.6 67 2.9 SSW 20 28 11 15 1024.8 1024.9 0.0
27/10:30am 11.9 7.6 6.8 71 2.5 SSW 19 26 10 14 1024.9 1025.0 0.0
27/10:00am 11.5 7.2 6.8 73 2.3 S 19 24 10 13 1024.8 1024.9 0.0
27/09:30am 10.6 6.6 6.7 77 1.9 SSW 17 22 9 12 1024.8 1024.9 0.2
27/09:00am 9.4 4.9 6.3 81 1.4 SSW 19 24 10 13 1024.7 1024.8 0.2
27/08:30am 8.5 4.5 6.6 88 0.9 SSW 17 20 9 11 1024.5 1024.6 0.2
27/08:00am 7.0 4.3 5.6 91 0.6 SW 9 13 5 7 1024.2 1024.3 0.2
27/07:30am 5.5 2.9 4.2 91 0.6 SW 7 9 4 5 1023.9 1024.0 0.2
27/07:00am 5.0 1.9 3.7 91 0.5 WSW 9 11 5 6 1023.5 1023.6 0.2
27/06:30am 5.6 3.0 4.2 91 0.6 WSW 7 7 4 4 1023.2 1023.3 0.2
27/06:00am 5.6 2.9 3.9 89 0.7 WSW 7 9 4 5 1022.7 1022.8 0.2
27/05:30am 6.0 3.1 4.5 90 0.7 WSW 9 11 5 6 1022.4 1022.5 0.2
27/05:00am 6.3 3.4 4.6 89 0.7 WSW 9 9 5 5 1022.1 1022.2 0.2
27/04:30am 6.6 3.7 4.6 87 0.9 WSW 9 9 5 5 1022.0 1022.1 0.2
27/04:00am 6.9 4.0 4.7 86 1.0 SW 9 11 5 6 1021.9 1022.0 0.2
27/03:30am 8.0 4.5 5.5 84 1.1 WSW 13 17 7 9 1022.0 1022.1 0.2
27/03:00am 8.5 5.4 5.4 81 1.4 W 11 15 6 8 1022.1 1022.2 0.2
27/02:30am 8.9 5.8 5.6 80 1.5 W 11 13 6 7 1022.0 1022.1 0.2
27/02:00am 8.6 5.9 5.5 81 1.4 W 9 9 5 5 1022.1 1022.2 0.2
27/01:30am 9.1 6.8 5.5 78 1.7 W 7 9 4 5 1022.3 1022.4 0.2
27/01:00am 9.4 8.3 5.2 75 1.9 CALM 0 0 0 0 1022.5 1022.6 0.2
27/12:30am 9.4 8.5 5.9 79 1.6 CALM 0 0 0 0 1022.5 1022.6 0.2
27/12:00am 9.0 7.6 5.6 79 1.6 W 2 6 1 3 1022.7 1022.8 0.2
 
Date/Time
EST
Temp
°C
App
Temp
°C
Dew
Point
Rel
Hum
%
Delta-T
°C
Wind Press
QNH
hPa
Press
MSL
hPa
Rain
since 9 am
mm
Dir
 
Spd
km/h
Gust
km/h
Spd
kts
Gust
kts
26/11:30pm 9.1 6.4 5.5 78 1.7 WNW 9 11 5 6 1023.1 1023.1 0.2
26/11:00pm 9.0 8.0 5.4 78 1.6 CALM 0 0 0 0 1023.1 1023.1 0.2
26/10:30pm 8.9 6.8 5.6 80 1.5 SSE 6 9 3 5 1023.2 1023.3 0.2
26/10:00pm 9.3 8.3 5.5 77 1.7 CALM 0 0 0 0 1023.2 1023.3 0.2
26/09:30pm 9.3 7.2 5.7 78 1.7 WSW 6 7 3 4 1023.4 1023.5 0.2
26/09:00pm 9.4 6.7 5.8 78 1.7 WNW 9 11 5 6 1023.3 1023.4 0.2
26/08:30pm 9.5 8.4 5.1 74 2.0 CALM 0 0 0 0 1023.1 1023.1 0.2
26/08:00pm 10.2 7.1 5.4 72 2.2 W 11 13 6 7 1023.0 1023.0 0.2
26/07:30pm 11.2 10.2 5.5 68 2.7 CALM 0 6 0 3 1023.0 1023.0 0.2
26/07:00pm 11.7 9.4 5.6 66 2.9 W 7 9 4 5 1022.7 1022.8 0.2
26/06:30pm 12.2 9.9 5.6 64 3.1 SW 7 9 4 5 1022.3 1022.4 0.2
26/06:00pm 13.6 11.2 5.3 57 3.9 WSW 7 11 4 6 1022.2 1022.3 0.2
26/05:30pm 14.1 10.8 4.7 53 4.4 W 11 13 6 7 1022.1 1022.2 0.2
26/05:00pm 14.3 10.6 4.6 52 4.5 WNW 13 17 7 9 1021.8 1021.9 0.2
26/04:30pm 14.8 11.8 3.9 48 5.1 W 9 17 5 9 1021.7 1021.8 0.2
26/04:00pm 15.1 11.0 4.5 49 5.0 WNW 15 22 8 12 1021.7 1021.8 0.2
26/03:30pm 14.5 11.3 3.3 47 5.1 NW 9 15 5 8 1021.8 1021.9 0.2
26/03:00pm 15.0 11.8 5.0 51 4.8 NW 11 17 6 9 1022.3 1022.4 0.0
26/02:30pm 15.1 12.2 6.4 56 4.3 E 11 17 6 9 1022.2 1022.3 0.0
26/02:00pm 14.5 11.5 4.2 50 4.8 NE 9 17 5 9 1022.4 1022.5 0.0
26/01:30pm 14.7 12.5 3.2 46 5.3 N 4 9 2 5 1022.6 1022.7 0.0
26/01:00pm 14.3 11.5 5.1 54 4.4 E 9 15 5 8 1023.2 1023.3 0.0
26/12:30pm 15.1 12.5 5.9 54 4.5 NNE 9 17 5 9 1023.8 1023.9 0.0
26/12:00pm 13.4 11.0 5.1 57 3.9 N 7 13 4 7 1024.3 1024.4 0.0
26/11:30am 13.5 10.4 5.4 58 3.9 NNE 11 15 6 8 1024.5 1024.6 0.0
26/11:00am 12.5 11.6 5.9 64 3.1 CALM 0 0 0 0 1024.7 1024.8 0.0
26/10:30am 12.1 10.8 6.2 67 2.8 WNW 2 9 1 5 1024.9 1025.0 0.0
26/10:00am 11.3 9.8 6.8 74 2.2 WSW 4 9 2 5 1025.1 1025.2 0.0
26/09:30am 9.6 8.4 6.3 80 1.5 SW 2 7 1 4 1025.3 1025.4 0.0
26/09:00am 8.5 6.4 5.6 82 1.3 SW 6 9 3 5 1025.1 1025.2 0.0
26/08:30am 7.5 5.4 6.0 90 0.7 WSW 6 9 3 5 1024.8 1024.9 0.0
26/08:00am 5.4 4.2 4.4 93 0.4 CALM 0 0 0 0 1024.4 1024.5 0.0
26/07:30am 4.7 3.3 3.4 91 0.5 CALM 0 0 0 0 1024.2 1024.3 0.0
26/07:00am 5.0 3.7 4.0 93 0.4 CALM 0 0 0 0 1024.1 1024.2 0.0
26/06:30am 5.3 2.9 4.4 94 0.4 ENE 6 9 3 5 1024.0 1024.1 0.0
26/06:00am 4.4 2.9 3.2 92 0.5 CALM 0 0 0 0 1023.7 1023.8 0.0
26/05:30am 4.7 2.2 3.5 92 0.5 WNW 6 9 3 5 1023.5 1023.6 0.0
26/05:00am 4.9 2.3 3.1 88 0.7 NNW 6 7 3 4 1023.4 1023.5 0.0
26/04:30am 5.1 2.4 3.9 92 0.5 NW 7 9 4 5 1023.2 1023.3 0.0
26/04:00am 4.6 1.9 3.6 93 0.4 E 7 11 4 6 1023.2 1023.3 0.0
26/03:30am 4.8 3.4 3.6 92 0.5 CALM 0 6 0 3 1023.5 1023.6 0.0
26/03:00am 4.9 3.5 3.7 92 0.5 CALM 0 0 0 0 1023.6 1023.7 0.0
26/02:30am 4.3 2.7 2.5 88 0.7 CALM 0 7 0 4 1023.7 1023.8 0.0
26/02:00am 5.0 3.5 3.0 87 0.8 CALM 0 0 0 0 1024.2 1024.3 0.0
26/01:30am 6.1 4.9 4.6 90 0.7 CALM 0 0 0 0 1024.3 1024.4 0.0
26/01:00am 6.2 3.2 4.0 86 0.9 NW 9 11 5 6 1024.6 1024.7 0.0
26/12:30am 7.9 4.8 5.7 86 1.0 N 11 13 6 7 1024.9 1025.0 0.0
26/12:00am 7.7 6.7 5.7 87 0.9 CALM 0 0 0 0 1024.8 1024.9 0.0
 
Date/Time
EST
Temp
°C
App
Temp
°C
Dew
Point
Rel
Hum
%
Delta-T
°C
Wind Press
QNH
hPa
Press
MSL
hPa
Rain
since 9 am
mm
Dir
 
Spd
km/h
Gust
km/h
Spd
kts
Gust
kts
25/11:30pm 8.2 7.2 5.8 85 1.1 CALM 0 0 0 0 1024.9 1025.0 0.0
25/11:00pm 8.9 8.0 6.0 82 1.3 CALM 0 0 0 0 1024.9 1025.0 0.0
25/10:30pm 9.3 8.5 6.4 82 1.4 CALM 0 0 0 0 1025.0 1025.1 0.0
25/10:00pm 8.9 8.1 6.3 84 1.2 CALM 0 0 0 0 1024.9 1025.0 0.0
25/09:30pm 8.7 7.7 5.8 82 1.3 CALM 0 0 0 0 1024.7 1024.8 0.0
25/09:00pm 9.6 7.7 6.5 81 1.5 SE 6 7 3 4 1024.7 1024.8 0.0
25/08:30pm 9.4 6.9 6.5 82 1.4 SE 9 9 5 5 1024.5 1024.6 0.0
25/08:00pm 9.8 7.8 7.1 83 1.3 SSE 7 9 4 5 1024.3 1024.4 0.0
25/07:30pm 10.0 8.0 7.1 82 1.4 SSE 7 9 4 5 1024.2 1024.3 0.0
25/07:00pm 10.3 7.9 7.0 80 1.6 SSE 9 11 5 6 1023.9 1024.0 0.0
25/06:30pm 11.0 8.5 6.7 75 2.1 S 9 11 5 6 1023.6 1023.7 0.0
25/06:00pm 11.9 8.6 6.4 69 2.6 S 13 15 7 8 1023.4 1023.5 0.0

Other Formats:

Comma delimited format used in spreadsheet applications
http://www.bom.gov.au/fwo/IDN60801/IDN60801.94691.axf

JavaScript Object Notation format (JSON) in row-major order
http://www.bom.gov.au/fwo/IDN60801/IDN60801.94691.json